createdAt,value
2023-05-14T00:01:47.962Z,0.38
2023-05-14T00:04:15.733Z,0.03
2023-05-14T00:06:43.988Z,0.00
2023-05-14T00:09:11.679Z,1.45
2023-05-14T00:11:39.992Z,0.08
2023-05-14T00:14:07.725Z,0.65
2023-05-14T00:16:36.011Z,0.00
2023-05-14T00:19:04.162Z,0.82
2023-05-14T00:21:32.724Z,0.25
2023-05-14T00:24:00.538Z,1.02
2023-05-14T00:26:28.732Z,0.15
2023-05-14T00:28:56.881Z,0.47
2023-05-14T00:31:25.093Z,2.00
2023-05-14T00:33:52.906Z,0.63
2023-05-14T00:36:21.656Z,0.20
2023-05-14T00:38:49.820Z,0.25
2023-05-14T00:41:18.199Z,1.50
2023-05-14T00:43:46.742Z,0.10
2023-05-14T00:46:15.894Z,0.43
2023-05-14T00:48:44.623Z,1.40
2023-05-14T00:51:12.837Z,0.00
2023-05-14T00:53:40.710Z,0.98
2023-05-14T00:56:09.268Z,0.32
2023-05-14T00:58:36.906Z,0.00
2023-05-14T01:01:05.205Z,0.13
2023-05-14T01:03:34.839Z,0.10
2023-05-14T01:06:09.092Z,0.45
2023-05-14T01:09:07.916Z,0.20
2023-05-14T01:12:28.768Z,0.05
2023-05-14T01:14:59.635Z,1.08
2023-05-14T01:17:33.194Z,0.30
2023-05-14T01:20:02.195Z,0.52
2023-05-14T01:22:30.520Z,1.02
2023-05-14T01:24:58.275Z,0.28
2023-05-14T01:27:36.830Z,0.38
2023-05-14T01:30:08.535Z,1.48
2023-05-14T01:32:37.455Z,0.30
2023-05-14T01:35:08.038Z,0.43
2023-05-14T01:37:37.692Z,1.20
2023-05-14T01:40:07.939Z,0.28
2023-05-14T01:42:37.307Z,0.32
2023-05-14T01:45:06.316Z,0.52
2023-05-14T01:47:34.866Z,2.53
2023-05-14T01:50:02.870Z,1.65
2023-05-14T01:52:31.977Z,1.50
2023-05-14T01:55:00.379Z,0.10
2023-05-14T01:57:29.316Z,1.27
2023-05-14T01:59:57.127Z,0.70
2023-05-14T02:02:26.030Z,1.50
2023-05-14T02:04:53.881Z,0.63
2023-05-14T02:07:22.945Z,0.10
2023-05-14T02:09:50.801Z,1.33
2023-05-14T02:12:19.118Z,1.33
2023-05-14T02:14:47.157Z,2.78
2023-05-14T02:17:18.332Z,0.38
2023-05-14T02:19:46.608Z,0.25
2023-05-14T02:22:14.812Z,0.90
2023-05-14T02:24:43.678Z,0.70
2023-05-14T02:27:13.465Z,1.65
2023-05-14T02:29:41.598Z,1.13
2023-05-14T02:32:09.795Z,0.60
2023-05-14T02:34:37.610Z,1.55
2023-05-14T02:37:05.891Z,1.17
2023-05-14T02:39:33.634Z,0.90
2023-05-14T02:42:01.880Z,0.55
2023-05-14T02:44:32.121Z,0.25
2023-05-14T02:47:00.477Z,0.55
2023-05-14T02:49:28.373Z,2.00
2023-05-14T02:51:57.246Z,1.45
2023-05-14T02:54:24.966Z,0.85
2023-05-14T02:56:53.145Z,0.75
2023-05-14T02:59:20.890Z,1.08
2023-05-14T03:01:49.629Z,1.15
2023-05-14T03:04:18.133Z,1.50
2023-05-14T03:06:46.328Z,0.82
2023-05-14T03:09:14.677Z,0.35
2023-05-14T03:11:43.536Z,1.50
2023-05-14T03:14:11.307Z,0.45
2023-05-14T03:16:40.445Z,0.35
2023-05-14T03:19:10.404Z,1.55
2023-05-14T03:21:38.742Z,0.30
2023-05-14T03:24:06.639Z,0.22
2023-05-14T03:26:34.935Z,1.05
2023-05-14T03:29:03.574Z,0.25
2023-05-14T03:31:32.353Z,2.35
2023-05-14T03:34:01.137Z,0.57
2023-05-14T03:36:29.635Z,0.00
2023-05-14T03:38:57.672Z,1.00
2023-05-14T03:41:26.537Z,0.20
2023-05-14T03:43:54.480Z,2.30
2023-05-14T03:46:23.525Z,0.70
2023-05-14T03:48:51.426Z,1.35
2023-05-14T03:51:19.791Z,0.73
2023-05-14T03:53:47.631Z,1.00
2023-05-14T03:56:16.607Z,1.55
2023-05-14T03:58:44.547Z,0.70
2023-05-14T04:01:13.137Z,1.13
2023-05-14T04:03:41.082Z,1.35
2023-05-14T04:06:09.781Z,0.47
2023-05-14T04:08:37.566Z,1.48
2023-05-14T04:11:06.131Z,1.52
2023-05-14T04:13:33.994Z,0.50
2023-05-14T04:16:02.572Z,1.70
2023-05-14T04:18:31.263Z,1.02
2023-05-14T04:20:59.473Z,2.28
2023-05-14T04:23:28.438Z,1.17
2023-05-14T04:25:56.636Z,1.63
2023-05-14T04:28:24.446Z,1.50
2023-05-14T04:30:52.997Z,3.25
2023-05-14T04:33:21.528Z,2.45
2023-05-14T04:35:49.697Z,2.15
2023-05-14T04:38:17.491Z,1.45
2023-05-14T04:40:45.754Z,1.38
2023-05-14T04:43:13.585Z,1.33
2023-05-14T04:45:41.710Z,2.05
2023-05-14T04:48:09.863Z,2.70
2023-05-14T04:50:38.054Z,1.55
2023-05-14T04:53:06.719Z,1.65
2023-05-14T04:55:35.616Z,1.85
2023-05-14T04:58:03.439Z,1.50
2023-05-14T05:00:31.769Z,2.15
2023-05-14T05:02:59.544Z,3.55
2023-05-14T05:05:27.874Z,0.95
2023-05-14T05:07:57.024Z,3.40
2023-05-14T05:10:25.880Z,1.15
2023-05-14T05:12:53.809Z,1.88
2023-05-14T05:15:21.905Z,1.85
2023-05-14T05:17:49.864Z,2.00
2023-05-14T05:20:18.128Z,2.10
2023-05-14T05:22:45.811Z,1.95
2023-05-14T05:25:14.259Z,4.82
2023-05-14T05:27:42.018Z,2.80
2023-05-14T05:30:10.742Z,5.65
2023-05-14T05:32:38.627Z,1.30
2023-05-14T05:35:07.427Z,4.07
2023-05-14T05:37:36.075Z,5.13
2023-05-14T05:40:06.279Z,5.18
2023-05-14T05:42:34.066Z,2.50
2023-05-14T05:45:02.385Z,1.42
2023-05-14T05:47:30.771Z,1.63
2023-05-14T05:49:59.001Z,5.35
2023-05-14T05:52:26.882Z,2.03
2023-05-14T05:54:55.380Z,3.60
2023-05-14T05:57:26.242Z,4.88
2023-05-14T05:59:57.065Z,4.35
2023-05-14T06:02:25.674Z,4.82
2023-05-14T06:04:54.260Z,2.53
2023-05-14T06:07:22.267Z,4.45
2023-05-14T06:09:50.623Z,7.10
2023-05-14T06:12:18.349Z,3.92
2023-05-14T06:14:47.110Z,3.40
2023-05-14T06:17:14.882Z,4.60
2023-05-14T06:19:43.257Z,3.33
2023-05-14T06:22:11.297Z,3.45
2023-05-14T06:24:40.046Z,4.32
2023-05-14T06:27:08.167Z,0.93
2023-05-14T06:29:36.229Z,3.33
2023-05-14T06:32:05.088Z,1.92
2023-05-14T06:34:33.664Z,4.18
2023-05-14T06:37:03.104Z,2.55
2023-05-14T06:39:31.586Z,2.55
2023-05-14T06:41:59.571Z,0.13
2023-05-14T06:44:28.036Z,1.05
2023-05-14T06:46:56.158Z,0.03
2023-05-14T06:49:26.581Z,2.30
2023-05-14T06:51:54.613Z,1.65
2023-05-14T06:54:24.943Z,0.98
2023-05-14T06:56:53.628Z,1.05
2023-05-14T06:59:22.472Z,2.10
2023-05-14T07:01:50.792Z,0.82
2023-05-14T07:04:19.605Z,2.35
2023-05-14T07:06:47.553Z,1.35
2023-05-14T07:09:17.731Z,1.17
2023-05-14T07:11:45.353Z,1.02
2023-05-14T07:14:13.760Z,2.50
2023-05-14T07:16:43.139Z,0.52
2023-05-14T07:19:11.523Z,0.73
2023-05-14T07:21:39.689Z,0.32
2023-05-14T07:24:08.181Z,0.68
2023-05-14T07:26:36.243Z,0.40
2023-05-14T07:29:04.711Z,1.85
2023-05-14T07:31:33.051Z,0.22
2023-05-14T07:34:01.263Z,2.28
2023-05-14T07:36:29.106Z,1.45
2023-05-14T07:38:57.406Z,1.40
2023-05-14T07:41:25.166Z,1.27
2023-05-14T07:43:53.516Z,2.13
2023-05-14T07:46:21.353Z,2.40
2023-05-14T07:48:50.729Z,1.08
2023-05-14T07:51:18.615Z,1.10
2023-05-14T07:53:46.853Z,2.50
2023-05-14T07:56:15.217Z,1.83
2023-05-14T07:58:43.608Z,1.77
2023-05-14T08:01:13.205Z,2.70
2023-05-14T08:03:41.678Z,1.00
2023-05-14T08:06:09.594Z,0.55
2023-05-14T08:08:38.013Z,1.00
2023-05-14T08:11:06.175Z,2.22
2023-05-14T08:13:34.576Z,1.15
2023-05-14T08:16:02.536Z,3.60
2023-05-14T08:18:31.119Z,4.63
2023-05-14T08:20:59.002Z,0.20
2023-05-14T08:23:27.972Z,0.35
2023-05-14T08:25:55.953Z,0.73
2023-05-14T08:28:25.313Z,0.40
2023-05-14T08:30:53.237Z,0.68
2023-05-14T08:33:21.724Z,1.55
2023-05-14T08:35:53.356Z,1.85
2023-05-14T08:38:21.920Z,0.05
2023-05-14T08:41:00.235Z,0.13
2023-05-14T08:43:36.034Z,0.32
2023-05-14T08:46:06.684Z,0.00
2023-05-14T08:48:36.488Z,1.13
2023-05-14T08:51:04.901Z,0.40
2023-05-14T08:53:34.063Z,0.57
2023-05-14T08:56:07.357Z,0.35
2023-05-14T08:58:35.783Z,0.55
2023-05-14T09:01:04.307Z,0.25
2023-05-14T09:03:35.311Z,1.45
2023-05-14T09:06:04.836Z,0.52
2023-05-14T09:08:33.720Z,0.25
2023-05-14T09:11:01.450Z,1.70
2023-05-14T09:13:29.895Z,0.47
2023-05-14T09:16:00.337Z,0.35
2023-05-14T09:18:28.768Z,1.10
2023-05-14T09:20:56.792Z,1.30
2023-05-14T09:23:27.549Z,0.32
2023-05-14T09:28:28.535Z,1.15
2023-05-14T09:30:56.623Z,0.73
2023-05-14T09:33:29.531Z,0.80
2023-05-14T09:36:01.696Z,1.60
2023-05-14T09:38:34.406Z,0.75
2023-05-14T09:41:04.841Z,0.45
2023-05-14T09:43:33.059Z,1.77
2023-05-14T09:46:01.358Z,0.77
2023-05-14T09:48:30.053Z,1.10
2023-05-14T09:50:58.004Z,0.52
2023-05-14T09:53:26.662Z,2.13
2023-05-14T09:55:54.481Z,1.40
2023-05-14T09:58:22.889Z,0.95
2023-05-14T10:00:53.672Z,1.70
2023-05-14T10:03:23.377Z,0.88
2023-05-14T10:05:52.555Z,1.13
2023-05-14T10:08:27.136Z,1.15
2023-05-14T10:10:56.227Z,1.65
2023-05-14T10:13:31.148Z,0.90
2023-05-14T10:16:14.018Z,0.77
2023-05-14T10:18:48.711Z,0.98
2023-05-14T10:21:37.061Z,0.70
2023-05-14T10:24:06.776Z,0.25
2023-05-14T10:29:11.194Z,1.60
2023-05-14T10:34:46.568Z,1.33
2023-05-14T10:37:26.425Z,1.88
2023-05-14T10:40:01.931Z,1.48
2023-05-14T10:42:37.944Z,1.48
2023-05-14T10:45:08.777Z,1.48
2023-05-14T10:50:11.297Z,0.60
2023-05-14T10:52:41.325Z,0.80
2023-05-14T10:55:12.867Z,0.08
2023-05-14T10:57:43.755Z,1.05
2023-05-14T11:00:14.982Z,0.22
2023-05-14T11:02:45.202Z,1.30
2023-05-14T11:05:17.654Z,1.23
2023-05-14T11:07:48.679Z,0.70
2023-05-14T11:10:19.579Z,0.30
2023-05-14T11:12:49.358Z,0.52
2023-05-14T11:15:22.355Z,0.95
2023-05-14T11:17:51.495Z,0.13
2023-05-14T11:20:21.155Z,0.10
2023-05-14T11:22:51.987Z,0.95
2023-05-14T11:25:22.120Z,0.88
2023-05-14T11:27:51.113Z,0.25
2023-05-14T11:30:20.767Z,1.00
2023-05-14T11:32:50.877Z,0.15
2023-05-14T11:35:19.212Z,0.30
2023-05-14T11:37:53.557Z,0.40
2023-05-14T11:40:22.296Z,1.48
2023-05-14T11:42:53.774Z,1.38
2023-05-14T11:45:26.972Z,1.13
2023-05-14T11:47:57.636Z,0.00
2023-05-14T11:50:27.066Z,0.00
2023-05-14T11:52:58.586Z,0.25
2023-05-14T11:55:27.260Z,0.52
2023-05-14T11:57:55.396Z,1.55
2023-05-14T12:00:25.022Z,0.30
2023-05-14T12:02:53.453Z,0.20
2023-05-14T12:05:22.734Z,1.05
2023-05-14T12:07:50.794Z,0.32
2023-05-14T12:10:18.962Z,0.10
2023-05-14T12:12:48.482Z,0.85
2023-05-14T12:15:17.648Z,0.60
2023-05-14T12:17:52.235Z,0.00
2023-05-14T12:20:20.666Z,0.20
2023-05-14T12:22:48.562Z,0.32
2023-05-14T12:25:17.321Z,0.55
2023-05-14T12:27:45.849Z,0.22
2023-05-14T12:32:46.357Z,0.52
2023-05-14T12:35:15.866Z,0.40
2023-05-14T12:37:43.981Z,0.10
2023-05-14T12:40:12.645Z,0.15
2023-05-14T12:42:40.584Z,0.00
2023-05-14T12:45:09.302Z,0.00
2023-05-14T12:47:37.738Z,0.45
2023-05-14T12:50:06.750Z,0.15
2023-05-14T12:52:39.329Z,0.20
2023-05-14T12:55:09.748Z,0.32
2023-05-14T12:57:39.614Z,0.17
2023-05-14T13:00:14.107Z,0.20
2023-05-14T13:02:43.676Z,0.22
2023-05-14T13:05:13.103Z,0.40
2023-05-14T13:07:41.428Z,0.50
2023-05-14T13:10:10.494Z,0.38
2023-05-14T13:12:38.994Z,0.05
2023-05-14T13:15:08.176Z,0.10
2023-05-14T13:17:36.957Z,0.30
2023-05-14T13:20:05.707Z,0.08
2023-05-14T13:22:34.564Z,0.35
2023-05-14T13:25:03.530Z,0.10
2023-05-14T13:27:31.475Z,0.00
2023-05-14T13:30:00.592Z,0.03
2023-05-14T13:32:28.460Z,0.32
2023-05-14T13:34:56.791Z,0.28
2023-05-14T13:37:26.007Z,0.10
2023-05-14T13:39:54.347Z,0.40
2023-05-14T13:42:24.065Z,0.00
2023-05-14T13:44:52.261Z,0.45
2023-05-14T13:47:20.206Z,0.43
2023-05-14T13:49:48.470Z,0.32
2023-05-14T13:52:16.642Z,0.57
2023-05-14T13:54:45.282Z,0.10
2023-05-14T13:57:12.997Z,0.22
2023-05-14T13:59:41.612Z,0.32
2023-05-14T14:02:09.733Z,0.45
2023-05-14T14:04:38.105Z,0.90
2023-05-14T14:07:06.036Z,0.50
2023-05-14T14:09:37.063Z,0.40
2023-05-14T14:12:06.139Z,0.13
2023-05-14T14:14:34.441Z,0.55
2023-05-14T14:17:02.280Z,0.52
2023-05-14T14:19:30.572Z,0.00
2023-05-14T14:21:58.426Z,0.20
2023-05-14T14:24:26.634Z,0.85
2023-05-14T14:26:54.502Z,0.73
2023-05-14T14:29:24.361Z,0.35
2023-05-14T14:31:52.363Z,0.50
2023-05-14T14:34:21.136Z,0.25
2023-05-14T14:36:49.052Z,0.47
2023-05-14T14:39:17.313Z,0.73
2023-05-14T14:41:45.435Z,0.45
2023-05-14T14:44:13.662Z,0.30
2023-05-14T14:46:43.265Z,0.45
2023-05-14T14:49:11.895Z,0.25
2023-05-14T14:51:39.981Z,0.65
2023-05-14T14:54:08.494Z,0.05
2023-05-14T14:56:36.348Z,0.10
2023-05-14T14:59:04.373Z,0.10
2023-05-14T15:01:32.661Z,0.10
2023-05-14T15:04:00.891Z,0.20
2023-05-14T15:06:29.698Z,0.40
2023-05-14T15:08:58.220Z,1.30
2023-05-14T15:11:26.345Z,0.50
2023-05-14T15:13:55.290Z,0.10
2023-05-14T15:16:22.864Z,0.32
2023-05-14T15:18:51.172Z,0.95
2023-05-14T15:21:19.453Z,0.30
2023-05-14T15:23:48.436Z,0.20
2023-05-14T15:26:16.368Z,0.10
2023-05-14T15:28:44.747Z,0.22
2023-05-14T15:31:12.878Z,0.13
2023-05-14T15:33:42.436Z,0.65
2023-05-14T15:36:10.406Z,0.08
2023-05-14T15:38:38.740Z,0.43
2023-05-14T15:41:06.945Z,0.22
2023-05-14T15:43:35.718Z,0.28
2023-05-14T15:46:04.011Z,0.20
2023-05-14T15:48:32.290Z,0.05
2023-05-14T15:51:03.232Z,0.03
2023-05-14T15:53:31.764Z,0.10
2023-05-14T15:55:59.564Z,0.00
2023-05-14T15:58:27.855Z,0.20
2023-05-14T16:00:56.332Z,0.28
2023-05-14T16:03:25.069Z,0.35
2023-05-14T16:05:53.226Z,0.30
2023-05-14T16:08:21.804Z,0.68
2023-05-14T16:10:50.115Z,0.20
2023-05-14T16:13:18.833Z,0.05
2023-05-14T16:15:47.181Z,0.50
2023-05-14T16:18:16.756Z,0.90
2023-05-14T16:20:45.996Z,0.40
2023-05-14T16:23:14.291Z,0.10
2023-05-14T16:25:42.104Z,0.22
2023-05-14T16:28:10.475Z,0.15
2023-05-14T16:30:39.500Z,0.08
2023-05-14T16:33:08.456Z,0.00
2023-05-14T16:35:36.485Z,0.40
2023-05-14T16:38:05.781Z,0.60
2023-05-14T16:40:33.593Z,0.00
2023-05-14T16:43:02.079Z,0.38
2023-05-14T16:45:31.857Z,0.30
2023-05-14T16:48:01.697Z,0.63
2023-05-14T16:50:30.203Z,0.25
2023-05-14T16:52:58.527Z,0.30
2023-05-14T16:55:26.911Z,0.57
2023-05-14T16:57:55.760Z,0.10
2023-05-14T17:00:23.940Z,0.22
2023-05-14T17:02:54.569Z,0.15
2023-05-14T17:05:27.352Z,0.08
2023-05-14T17:08:00.585Z,0.25
2023-05-14T17:10:28.624Z,0.68
2023-05-14T17:12:56.958Z,0.17
2023-05-14T17:15:43.008Z,0.63
2023-05-14T17:18:12.358Z,0.50
2023-05-14T17:20:42.833Z,0.00
2023-05-14T17:23:10.806Z,0.20
2023-05-14T17:25:42.051Z,0.20
2023-05-14T17:28:09.964Z,0.20
2023-05-14T17:30:38.332Z,0.40
2023-05-14T17:33:07.933Z,0.05
2023-05-14T17:35:37.644Z,0.10
2023-05-14T17:38:05.630Z,0.63
2023-05-14T17:40:34.862Z,0.30
2023-05-14T17:43:02.819Z,0.20
2023-05-14T17:45:39.295Z,0.15
2023-05-14T17:48:10.886Z,0.00
2023-05-14T17:50:40.024Z,0.10
2023-05-14T17:53:07.992Z,0.63
2023-05-14T17:55:43.963Z,0.32
2023-05-14T17:58:16.478Z,0.13
2023-05-14T18:00:45.421Z,0.00
2023-05-14T18:03:15.524Z,0.20
2023-05-14T18:05:44.559Z,0.45
2023-05-14T18:08:13.850Z,0.15
2023-05-14T18:10:42.778Z,0.30
2023-05-14T18:13:10.824Z,0.17
2023-05-14T18:15:39.588Z,0.00
2023-05-14T18:18:07.505Z,0.20
2023-05-14T18:20:37.185Z,0.20
2023-05-14T18:23:05.031Z,0.00
2023-05-14T18:25:34.481Z,0.00
2023-05-14T18:28:04.143Z,0.30
2023-05-14T18:30:34.886Z,0.10
2023-05-14T18:33:02.822Z,0.00
2023-05-14T18:35:32.019Z,0.08
2023-05-14T18:38:00.211Z,0.30
2023-05-14T18:40:31.157Z,0.00
2023-05-14T18:42:59.656Z,0.95
2023-05-14T18:45:32.475Z,0.68
2023-05-14T18:48:00.499Z,0.15
2023-05-14T18:50:31.239Z,0.00
2023-05-14T18:52:59.800Z,0.10
2023-05-14T18:55:28.825Z,0.50
2023-05-14T18:57:57.518Z,0.22
2023-05-14T19:00:26.135Z,0.32
2023-05-14T19:02:54.338Z,0.60
2023-05-14T19:05:23.117Z,0.47
2023-05-14T19:07:51.959Z,0.20
2023-05-14T19:10:24.243Z,0.35
2023-05-14T19:12:52.828Z,0.98
2023-05-14T19:15:21.971Z,0.82
2023-05-14T19:17:50.369Z,0.28
2023-05-14T19:20:20.382Z,0.75
2023-05-14T19:22:49.712Z,0.55
2023-05-14T19:25:19.566Z,0.38
2023-05-14T19:27:52.083Z,0.45
2023-05-14T19:30:23.793Z,0.68
2023-05-14T19:32:52.729Z,0.52
2023-05-14T19:35:24.156Z,0.00
2023-05-14T19:37:52.756Z,0.00
2023-05-14T19:40:22.619Z,0.65
2023-05-14T19:42:50.550Z,0.40
2023-05-14T19:45:18.810Z,0.20
2023-05-14T19:47:47.701Z,0.03
2023-05-14T19:50:19.093Z,0.30
2023-05-14T19:52:47.719Z,0.52
2023-05-14T19:55:16.140Z,0.50
2023-05-14T19:57:45.552Z,0.15
2023-05-14T20:00:15.278Z,0.38
2023-05-14T20:02:44.051Z,0.00
2023-05-14T20:05:13.738Z,0.82
2023-05-14T20:07:43.878Z,0.17
2023-05-14T20:10:13.637Z,0.30
2023-05-14T20:12:41.749Z,1.17
2023-05-14T20:15:11.587Z,0.00
2023-05-14T20:17:40.496Z,0.30
2023-05-14T20:20:10.761Z,0.30
2023-05-14T20:22:38.973Z,0.80
2023-05-14T20:25:09.365Z,1.23
2023-05-14T20:27:37.740Z,0.98
2023-05-14T20:30:07.063Z,0.65
2023-05-14T20:32:35.482Z,0.65
2023-05-14T20:35:04.012Z,0.10
2023-05-14T20:37:33.472Z,0.10
2023-05-14T20:40:06.521Z,0.70
2023-05-14T20:42:36.717Z,0.00
2023-05-14T20:45:06.566Z,0.52
2023-05-14T20:47:34.452Z,0.17
2023-05-14T20:50:02.982Z,0.47
2023-05-14T20:52:30.832Z,0.63
2023-05-14T20:55:01.537Z,0.10
2023-05-14T20:57:31.537Z,0.50
2023-05-14T20:59:59.761Z,0.55
2023-05-14T21:02:27.682Z,0.20
2023-05-14T21:04:56.028Z,0.68
2023-05-14T21:07:24.049Z,0.70
2023-05-14T21:09:52.986Z,0.20
2023-05-14T21:12:22.012Z,0.30
2023-05-14T21:14:50.723Z,0.80
2023-05-14T21:17:18.478Z,1.42
2023-05-14T21:19:48.712Z,1.02
2023-05-14T21:22:16.708Z,0.15
2023-05-14T21:24:44.885Z,0.25
2023-05-14T21:27:12.969Z,0.75
2023-05-14T21:29:41.393Z,0.38
2023-05-14T21:32:09.662Z,0.40
2023-05-14T21:34:38.252Z,1.25
2023-05-14T21:37:06.483Z,0.85
2023-05-14T21:39:35.293Z,1.13
2023-05-14T21:42:03.044Z,0.00
2023-05-14T21:44:31.367Z,1.23
2023-05-14T21:46:59.495Z,0.50
2023-05-14T21:49:28.783Z,0.80
2023-05-14T21:51:56.573Z,0.10
2023-05-14T21:54:25.255Z,0.45
2023-05-14T21:56:53.392Z,0.00
2023-05-14T21:59:21.853Z,0.10
2023-05-14T22:04:21.528Z,0.45
2023-05-14T22:06:52.073Z,0.30
2023-05-14T22:09:20.488Z,0.50
2023-05-14T22:11:49.516Z,1.63
2023-05-14T22:14:17.640Z,0.00
2023-05-14T22:16:45.773Z,0.88
2023-05-14T22:19:16.217Z,0.50
2023-05-14T22:21:44.404Z,0.75
2023-05-14T22:24:12.661Z,0.90
2023-05-14T22:26:40.396Z,0.57
2023-05-14T22:29:09.820Z,0.25
2023-05-14T22:31:37.761Z,0.08
2023-05-14T22:34:06.137Z,0.52
2023-05-14T22:36:34.221Z,0.75
2023-05-14T22:39:02.520Z,0.20
2023-05-14T22:41:31.221Z,0.70
2023-05-14T22:43:59.425Z,0.65
2023-05-14T22:46:27.919Z,1.25
2023-05-14T22:48:57.402Z,0.40
2023-05-14T22:51:25.901Z,0.60
2023-05-14T22:53:54.995Z,0.17
2023-05-14T22:56:22.954Z,0.47
2023-05-14T22:58:51.303Z,0.77
2023-05-14T23:01:19.091Z,0.55
2023-05-14T23:03:48.013Z,0.10
2023-05-14T23:06:15.851Z,1.38
2023-05-14T23:08:44.059Z,0.22
2023-05-14T23:11:11.941Z,0.55
2023-05-14T23:13:40.248Z,0.50
2023-05-14T23:16:08.340Z,0.50
2023-05-14T23:18:36.559Z,0.68
2023-05-14T23:21:04.550Z,0.95
2023-05-14T23:23:33.063Z,0.25
2023-05-14T23:26:01.127Z,0.85
2023-05-14T23:28:31.590Z,0.45
2023-05-14T23:30:59.561Z,0.63
2023-05-14T23:33:27.765Z,0.73
2023-05-14T23:35:55.945Z,0.73
2023-05-14T23:38:24.798Z,0.17
2023-05-14T23:40:52.967Z,0.32
2023-05-14T23:43:21.240Z,0.35
2023-05-14T23:45:49.218Z,0.65
2023-05-14T23:48:18.488Z,0.28
2023-05-14T23:50:46.429Z,0.22
2023-05-14T23:53:15.048Z,0.40
2023-05-14T23:55:42.860Z,0.20
2023-05-14T23:58:11.377Z,0.60
